sensor_id;sensor_type;location;lat;lon;timestamp;P1;durP1;ratioP1;P2;durP2;ratioP2
12725;SDS011;6427;49.754;6.106;2023-02-11T00:00:33;46.72;;;28.65;;
12725;SDS011;6427;49.754;6.106;2023-02-11T00:03:01;43.10;;;23.83;;
12725;SDS011;6427;49.754;6.106;2023-02-11T00:05:29;41.83;;;22.93;;
12725;SDS011;6427;49.754;6.106;2023-02-11T00:07:56;38.23;;;22.43;;
12725;SDS011;6427;49.754;6.106;2023-02-11T00:10:25;38.03;;;21.67;;
12725;SDS011;6427;49.754;6.106;2023-02-11T00:12:52;41.03;;;21.33;;
12725;SDS011;6427;49.754;6.106;2023-02-11T00:15:20;42.10;;;21.67;;
12725;SDS011;6427;49.754;6.106;2023-02-11T00:17:48;46.53;;;22.97;;
12725;SDS011;6427;49.754;6.106;2023-02-11T00:20:15;37.07;;;21.37;;
12725;SDS011;6427;49.754;6.106;2023-02-11T00:22:44;45.33;;;28.17;;
12725;SDS011;6427;49.754;6.106;2023-02-11T00:25:11;41.33;;;22.50;;
12725;SDS011;6427;49.754;6.106;2023-02-11T00:27:39;43.60;;;23.23;;
12725;SDS011;6427;49.754;6.106;2023-02-11T00:30:06;42.03;;;22.53;;
12725;SDS011;6427;49.754;6.106;2023-02-11T00:32:34;43.20;;;22.07;;
12725;SDS011;6427;49.754;6.106;2023-02-11T00:35:02;40.37;;;22.67;;
12725;SDS011;6427;49.754;6.106;2023-02-11T00:37:29;40.17;;;22.10;;
12725;SDS011;6427;49.754;6.106;2023-02-11T00:39:57;43.07;;;22.27;;
12725;SDS011;6427;49.754;6.106;2023-02-11T00:42:24;48.70;;;22.97;;
12725;SDS011;6427;49.754;6.106;2023-02-11T00:44:52;45.90;;;28.75;;
12725;SDS011;6427;49.754;6.106;2023-02-11T00:47:19;39.33;;;24.10;;
12725;SDS011;6427;49.754;6.106;2023-02-11T00:49:47;39.37;;;22.33;;
12725;SDS011;6427;49.754;6.106;2023-02-11T00:52:14;44.10;;;22.90;;
12725;SDS011;6427;49.754;6.106;2023-02-11T00:54:43;45.50;;;22.73;;
12725;SDS011;6427;49.754;6.106;2023-02-11T00:57:10;36.03;;;21.00;;
12725;SDS011;6427;49.754;6.106;2023-02-11T00:59:38;38.20;;;20.83;;
12725;SDS011;6427;49.754;6.106;2023-02-11T01:02:05;40.70;;;21.57;;
12725;SDS011;6427;49.754;6.106;2023-02-11T01:04:34;38.50;;;21.13;;
12725;SDS011;6427;49.754;6.106;2023-02-11T01:07:01;38.57;;;20.57;;
12725;SDS011;6427;49.754;6.106;2023-02-11T01:09:29;38.03;;;20.07;;
12725;SDS011;6427;49.754;6.106;2023-02-11T01:11:56;42.63;;;20.60;;
12725;SDS011;6427;49.754;6.106;2023-02-11T01:14:24;40.50;;;20.70;;
12725;SDS011;6427;49.754;6.106;2023-02-11T01:16:52;40.53;;;21.30;;
12725;SDS011;6427;49.754;6.106;2023-02-11T01:19:20;39.80;;;20.83;;
12725;SDS011;6427;49.754;6.106;2023-02-11T01:21:47;42.38;;;26.33;;
12725;SDS011;6427;49.754;6.106;2023-02-11T01:24:15;44.90;;;26.60;;
12725;SDS011;6427;49.754;6.106;2023-02-11T01:26:42;43.33;;;26.87;;
12725;SDS011;6427;49.754;6.106;2023-02-11T01:29:10;39.70;;;22.83;;
12725;SDS011;6427;49.754;6.106;2023-02-11T01:31:38;38.07;;;21.80;;
12725;SDS011;6427;49.754;6.106;2023-02-11T01:34:06;37.13;;;21.60;;
12725;SDS011;6427;49.754;6.106;2023-02-11T01:36:33;35.90;;;20.73;;
12725;SDS011;6427;49.754;6.106;2023-02-11T01:39:02;38.57;;;21.77;;
12725;SDS011;6427;49.754;6.106;2023-02-11T01:41:29;48.57;;;22.10;;
12725;SDS011;6427;49.754;6.106;2023-02-11T01:43:57;38.10;;;21.03;;
12725;SDS011;6427;49.754;6.106;2023-02-11T01:46:36;43.47;;;21.77;;
12725;SDS011;6427;49.754;6.106;2023-02-11T01:54:03;40.10;;;21.70;;
12725;SDS011;6427;49.754;6.106;2023-02-11T01:56:48;39.60;;;20.57;;
12725;SDS011;6427;49.754;6.106;2023-02-11T01:59:39;35.40;;;20.53;;
12725;SDS011;6427;49.754;6.106;2023-02-11T02:02:09;41.03;;;20.63;;
12725;SDS011;6427;49.754;6.106;2023-02-11T02:04:38;38.67;;;21.93;;
12725;SDS011;6427;49.754;6.106;2023-02-11T02:07:07;38.50;;;20.33;;
12725;SDS011;6427;49.754;6.106;2023-02-11T02:09:37;37.70;;;20.30;;
12725;SDS011;6427;49.754;6.106;2023-02-11T02:12:06;34.87;;;20.07;;
12725;SDS011;6427;49.754;6.106;2023-02-11T02:14:38;39.87;;;21.73;;
12725;SDS011;6427;49.754;6.106;2023-02-11T02:17:05;38.90;;;20.97;;
12725;SDS011;6427;49.754;6.106;2023-02-11T02:19:47;43.10;;;25.73;;
12725;SDS011;6427;49.754;6.106;2023-02-11T02:22:26;38.10;;;22.57;;
12725;SDS011;6427;49.754;6.106;2023-02-11T02:27:45;40.63;;;21.20;;
12725;SDS011;6427;49.754;6.106;2023-02-11T02:33:13;43.00;;;27.17;;
12725;SDS011;6427;49.754;6.106;2023-02-11T02:38:29;39.30;;;21.37;;
12725;SDS011;6427;49.754;6.106;2023-02-11T02:41:12;39.40;;;21.53;;
12725;SDS011;6427;49.754;6.106;2023-02-11T02:43:45;40.27;;;20.17;;
12725;SDS011;6427;49.754;6.106;2023-02-11T02:46:16;37.37;;;21.20;;
12725;SDS011;6427;49.754;6.106;2023-02-11T02:48:53;38.83;;;20.53;;
12725;SDS011;6427;49.754;6.106;2023-02-11T02:59:56;39.17;;;20.33;;
12725;SDS011;6427;49.754;6.106;2023-02-11T03:05:14;39.60;;;20.70;;
12725;SDS011;6427;49.754;6.106;2023-02-11T03:10:22;36.10;;;19.60;;
12725;SDS011;6427;49.754;6.106;2023-02-11T03:12:54;41.17;;;21.40;;
12725;SDS011;6427;49.754;6.106;2023-02-11T03:15:21;43.43;;;22.30;;
12725;SDS011;6427;49.754;6.106;2023-02-11T03:17:50;42.30;;;22.43;;
12725;SDS011;6427;49.754;6.106;2023-02-11T03:20:17;43.73;;;21.13;;
12725;SDS011;6427;49.754;6.106;2023-02-11T03:22:49;43.27;;;21.00;;
12725;SDS011;6427;49.754;6.106;2023-02-11T03:25:12;42.67;;;22.23;;
12725;SDS011;6427;49.754;6.106;2023-02-11T03:27:51;42.23;;;21.70;;
12725;SDS011;6427;49.754;6.106;2023-02-11T03:30:24;41.53;;;22.00;;
12725;SDS011;6427;49.754;6.106;2023-02-11T03:32:52;43.50;;;22.20;;
12725;SDS011;6427;49.754;6.106;2023-02-11T03:37:56;41.60;;;26.57;;
12725;SDS011;6427;49.754;6.106;2023-02-11T03:40:29;41.03;;;22.37;;
12725;SDS011;6427;49.754;6.106;2023-02-11T03:42:59;44.27;;;22.03;;
12725;SDS011;6427;49.754;6.106;2023-02-11T03:45:26;43.60;;;27.47;;
12725;SDS011;6427;49.754;6.106;2023-02-11T03:47:55;38.87;;;22.40;;
12725;SDS011;6427;49.754;6.106;2023-02-11T03:50:21;38.27;;;21.20;;
12725;SDS011;6427;49.754;6.106;2023-02-11T03:52:49;38.30;;;20.60;;
12725;SDS011;6427;49.754;6.106;2023-02-11T03:55:17;38.50;;;20.90;;
12725;SDS011;6427;49.754;6.106;2023-02-11T03:57:44;42.87;;;21.60;;
12725;SDS011;6427;49.754;6.106;2023-02-11T04:00:11;42.70;;;23.23;;
12725;SDS011;6427;49.754;6.106;2023-02-11T04:02:39;37.63;;;20.83;;
12725;SDS011;6427;49.754;6.106;2023-02-11T04:05:08;40.83;;;26.12;;
12725;SDS011;6427;49.754;6.106;2023-02-11T04:07:34;38.90;;;22.23;;
12725;SDS011;6427;49.754;6.106;2023-02-11T04:10:02;34.60;;;21.27;;
12725;SDS011;6427;49.754;6.106;2023-02-11T04:12:29;33.37;;;19.43;;
12725;SDS011;6427;49.754;6.106;2023-02-11T04:14:57;43.50;;;22.00;;
12725;SDS011;6427;49.754;6.106;2023-02-11T04:17:24;38.40;;;20.83;;
12725;SDS011;6427;49.754;6.106;2023-02-11T04:19:52;41.43;;;22.90;;
12725;SDS011;6427;49.754;6.106;2023-02-11T04:22:20;41.73;;;21.27;;
12725;SDS011;6427;49.754;6.106;2023-02-11T04:24:48;40.57;;;20.80;;
12725;SDS011;6427;49.754;6.106;2023-02-11T04:27:16;43.67;;;21.17;;
12725;SDS011;6427;49.754;6.106;2023-02-11T04:29:44;42.17;;;20.57;;
12725;SDS011;6427;49.754;6.106;2023-02-11T04:32:12;38.53;;;20.10;;
12725;SDS011;6427;49.754;6.106;2023-02-11T04:34:39;44.60;;;22.43;;
12725;SDS011;6427;49.754;6.106;2023-02-11T04:37:07;46.30;;;23.97;;
12725;SDS011;6427;49.754;6.106;2023-02-11T04:39:35;36.10;;;20.53;;
12725;SDS011;6427;49.754;6.106;2023-02-11T04:42:03;35.33;;;19.07;;
12725;SDS011;6427;49.754;6.106;2023-02-11T04:44:30;39.27;;;19.90;;
12725;SDS011;6427;49.754;6.106;2023-02-11T04:46:58;35.00;;;19.27;;
12725;SDS011;6427;49.754;6.106;2023-02-11T04:49:26;41.42;;;25.55;;
12725;SDS011;6427;49.754;6.106;2023-02-11T04:51:54;44.13;;;27.45;;
12725;SDS011;6427;49.754;6.106;2023-02-11T04:54:22;43.73;;;22.80;;
12725;SDS011;6427;49.754;6.106;2023-02-11T04:56:50;35.90;;;19.77;;
12725;SDS011;6427;49.754;6.106;2023-02-11T04:59:18;38.27;;;20.30;;
12725;SDS011;6427;49.754;6.106;2023-02-11T05:01:45;39.77;;;19.87;;
12725;SDS011;6427;49.754;6.106;2023-02-11T05:04:13;38.50;;;20.03;;
12725;SDS011;6427;49.754;6.106;2023-02-11T05:06:41;35.30;;;18.90;;
12725;SDS011;6427;49.754;6.106;2023-02-11T05:09:09;37.33;;;20.03;;
12725;SDS011;6427;49.754;6.106;2023-02-11T05:11:38;40.85;;;24.83;;
12725;SDS011;6427;49.754;6.106;2023-02-11T05:14:06;40.43;;;21.63;;
12725;SDS011;6427;49.754;6.106;2023-02-11T05:16:34;37.40;;;19.93;;
12725;SDS011;6427;49.754;6.106;2023-02-11T05:19:02;34.70;;;19.80;;
12725;SDS011;6427;49.754;6.106;2023-02-11T05:21:29;35.73;;;19.53;;
12725;SDS011;6427;49.754;6.106;2023-02-11T05:23:57;34.93;;;19.83;;
12725;SDS011;6427;49.754;6.106;2023-02-11T05:26:25;38.60;;;19.03;;
12725;SDS011;6427;49.754;6.106;2023-02-11T05:28:54;37.40;;;19.70;;
12725;SDS011;6427;49.754;6.106;2023-02-11T05:31:21;38.03;;;18.93;;
12725;SDS011;6427;49.754;6.106;2023-02-11T05:33:49;32.20;;;18.40;;
12725;SDS011;6427;49.754;6.106;2023-02-11T05:36:16;35.50;;;18.83;;
12725;SDS011;6427;49.754;6.106;2023-02-11T05:38:44;35.47;;;19.27;;
12725;SDS011;6427;49.754;6.106;2023-02-11T05:41:11;36.10;;;19.60;;
12725;SDS011;6427;49.754;6.106;2023-02-11T05:43:39;42.30;;;20.33;;
12725;SDS011;6427;49.754;6.106;2023-02-11T05:46:07;40.10;;;21.03;;
12725;SDS011;6427;49.754;6.106;2023-02-11T05:48:34;40.20;;;20.03;;
12725;SDS011;6427;49.754;6.106;2023-02-11T05:51:03;42.17;;;20.77;;
12725;SDS011;6427;49.754;6.106;2023-02-11T05:53:30;36.37;;;18.47;;
12725;SDS011;6427;49.754;6.106;2023-02-11T05:55:58;45.17;;;26.73;;
12725;SDS011;6427;49.754;6.106;2023-02-11T05:58:26;41.40;;;22.63;;
12725;SDS011;6427;49.754;6.106;2023-02-11T06:00:54;43.37;;;22.03;;
12725;SDS011;6427;49.754;6.106;2023-02-11T06:03:22;40.97;;;21.23;;
12725;SDS011;6427;49.754;6.106;2023-02-11T06:05:49;38.87;;;20.43;;
12725;SDS011;6427;49.754;6.106;2023-02-11T06:08:17;37.73;;;19.73;;
12725;SDS011;6427;49.754;6.106;2023-02-11T06:10:45;40.27;;;21.10;;
12725;SDS011;6427;49.754;6.106;2023-02-11T06:13:13;38.97;;;20.33;;
12725;SDS011;6427;49.754;6.106;2023-02-11T06:15:40;37.37;;;20.03;;
12725;SDS011;6427;49.754;6.106;2023-02-11T06:18:08;38.43;;;21.03;;
12725;SDS011;6427;49.754;6.106;2023-02-11T06:20:36;39.13;;;21.17;;
12725;SDS011;6427;49.754;6.106;2023-02-11T06:23:04;41.83;;;22.00;;
12725;SDS011;6427;49.754;6.106;2023-02-11T06:25:31;42.10;;;21.20;;
12725;SDS011;6427;49.754;6.106;2023-02-11T06:27:59;39.27;;;21.43;;
12725;SDS011;6427;49.754;6.106;2023-02-11T06:30:27;37.67;;;20.50;;
12725;SDS011;6427;49.754;6.106;2023-02-11T06:32:55;38.43;;;20.73;;
12725;SDS011;6427;49.754;6.106;2023-02-11T06:35:22;41.80;;;21.17;;
12725;SDS011;6427;49.754;6.106;2023-02-11T06:37:50;41.40;;;21.47;;
12725;SDS011;6427;49.754;6.106;2023-02-11T06:40:17;42.37;;;21.20;;
12725;SDS011;6427;49.754;6.106;2023-02-11T06:42:45;41.10;;;20.70;;
12725;SDS011;6427;49.754;6.106;2023-02-11T06:45:13;40.20;;;22.47;;
12725;SDS011;6427;49.754;6.106;2023-02-11T06:47:40;43.00;;;22.87;;
12725;SDS011;6427;49.754;6.106;2023-02-11T06:50:10;41.20;;;21.27;;
12725;SDS011;6427;49.754;6.106;2023-02-11T06:52:36;40.97;;;22.33;;
12725;SDS011;6427;49.754;6.106;2023-02-11T06:55:04;43.47;;;22.20;;
12725;SDS011;6427;49.754;6.106;2023-02-11T06:57:32;46.03;;;22.80;;
12725;SDS011;6427;49.754;6.106;2023-02-11T07:00:00;40.80;;;21.97;;
12725;SDS011;6427;49.754;6.106;2023-02-11T07:02:28;42.60;;;21.47;;
12725;SDS011;6427;49.754;6.106;2023-02-11T07:04:55;41.83;;;22.13;;
12725;SDS011;6427;49.754;6.106;2023-02-11T07:07:23;46.50;;;21.60;;
12725;SDS011;6427;49.754;6.106;2023-02-11T07:09:50;45.53;;;22.90;;
12725;SDS011;6427;49.754;6.106;2023-02-11T07:12:18;44.53;;;22.93;;
12725;SDS011;6427;49.754;6.106;2023-02-11T07:14:46;44.40;;;22.60;;
12725;SDS011;6427;49.754;6.106;2023-02-11T07:17:13;50.72;;;29.05;;
12725;SDS011;6427;49.754;6.106;2023-02-11T07:19:41;49.30;;;24.70;;
12725;SDS011;6427;49.754;6.106;2023-02-11T07:22:09;45.13;;;23.73;;
12725;SDS011;6427;49.754;6.106;2023-02-11T07:24:37;40.57;;;22.43;;
12725;SDS011;6427;49.754;6.106;2023-02-11T07:27:04;55.00;;;32.47;;
12725;SDS011;6427;49.754;6.106;2023-02-11T07:29:32;53.13;;;27.43;;
12725;SDS011;6427;49.754;6.106;2023-02-11T07:31:59;51.67;;;29.07;;
12725;SDS011;6427;49.754;6.106;2023-02-11T07:34:27;61.63;;;31.63;;
12725;SDS011;6427;49.754;6.106;2023-02-11T07:36:55;58.83;;;31.67;;
12725;SDS011;6427;49.754;6.106;2023-02-11T07:39:23;53.57;;;26.80;;
12725;SDS011;6427;49.754;6.106;2023-02-11T07:41:51;54.33;;;32.47;;
12725;SDS011;6427;49.754;6.106;2023-02-11T07:44:19;46.47;;;24.30;;
12725;SDS011;6427;49.754;6.106;2023-02-11T07:46:46;47.07;;;23.57;;
12725;SDS011;6427;49.754;6.106;2023-02-11T07:49:14;41.87;;;22.77;;
12725;SDS011;6427;49.754;6.106;2023-02-11T07:51:42;42.13;;;23.67;;
12725;SDS011;6427;49.754;6.106;2023-02-11T07:54:10;44.77;;;23.03;;
12725;SDS011;6427;49.754;6.106;2023-02-11T07:56:38;43.83;;;23.07;;
12725;SDS011;6427;49.754;6.106;2023-02-11T07:59:05;41.17;;;22.47;;
12725;SDS011;6427;49.754;6.106;2023-02-11T08:01:33;43.83;;;22.60;;
12725;SDS011;6427;49.754;6.106;2023-02-11T08:04:01;43.20;;;21.93;;
12725;SDS011;6427;49.754;6.106;2023-02-11T08:06:30;42.07;;;21.97;;
12725;SDS011;6427;49.754;6.106;2023-02-11T08:08:57;42.27;;;22.53;;
12725;SDS011;6427;49.754;6.106;2023-02-11T08:11:25;47.15;;;28.50;;
12725;SDS011;6427;49.754;6.106;2023-02-11T08:13:52;40.73;;;22.67;;
12725;SDS011;6427;49.754;6.106;2023-02-11T08:16:38;42.83;;;22.83;;
12725;SDS011;6427;49.754;6.106;2023-02-11T08:18:56;43.53;;;27.80;;
12725;SDS011;6427;49.754;6.106;2023-02-11T08:21:23;41.37;;;23.33;;
12725;SDS011;6427;49.754;6.106;2023-02-11T08:23:51;41.47;;;23.13;;
12725;SDS011;6427;49.754;6.106;2023-02-11T08:26:20;43.60;;;22.97;;
12725;SDS011;6427;49.754;6.106;2023-02-11T08:28:47;44.57;;;23.60;;
12725;SDS011;6427;49.754;6.106;2023-02-11T08:31:15;52.95;;;29.83;;
12725;SDS011;6427;49.754;6.106;2023-02-11T08:33:47;51.80;;;25.67;;
12725;SDS011;6427;49.754;6.106;2023-02-11T08:36:17;48.30;;;25.10;;
12725;SDS011;6427;49.754;6.106;2023-02-11T08:38:43;45.80;;;23.30;;
12725;SDS011;6427;49.754;6.106;2023-02-11T08:41:11;43.67;;;23.87;;
12725;SDS011;6427;49.754;6.106;2023-02-11T08:43:39;44.60;;;23.13;;
12725;SDS011;6427;49.754;6.106;2023-02-11T08:46:07;43.37;;;22.73;;
12725;SDS011;6427;49.754;6.106;2023-02-11T08:48:35;39.60;;;22.20;;
12725;SDS011;6427;49.754;6.106;2023-02-11T08:51:06;44.93;;;22.97;;
12725;SDS011;6427;49.754;6.106;2023-02-11T08:53:33;51.00;;;23.87;;
12725;SDS011;6427;49.754;6.106;2023-02-11T08:56:00;49.47;;;25.00;;
12725;SDS011;6427;49.754;6.106;2023-02-11T08:58:29;50.53;;;24.83;;
12725;SDS011;6427;49.754;6.106;2023-02-11T09:00:56;54.63;;;26.10;;
12725;SDS011;6427;49.754;6.106;2023-02-11T09:03:25;48.30;;;25.27;;
12725;SDS011;6427;49.754;6.106;2023-02-11T09:05:52;52.83;;;25.83;;
12725;SDS011;6427;49.754;6.106;2023-02-11T09:08:20;50.97;;;25.33;;
12725;SDS011;6427;49.754;6.106;2023-02-11T09:10:48;52.80;;;25.17;;
12725;SDS011;6427;49.754;6.106;2023-02-11T09:13:16;55.93;;;25.83;;
12725;SDS011;6427;49.754;6.106;2023-02-11T09:15:44;47.53;;;24.57;;
12725;SDS011;6427;49.754;6.106;2023-02-11T09:18:11;48.63;;;24.93;;
12725;SDS011;6427;49.754;6.106;2023-02-11T09:20:38;51.17;;;24.20;;
12725;SDS011;6427;49.754;6.106;2023-02-11T09:23:06;45.57;;;25.00;;
12725;SDS011;6427;49.754;6.106;2023-02-11T09:25:33;50.27;;;24.40;;
12725;SDS011;6427;49.754;6.106;2023-02-11T09:28:01;60.00;;;26.27;;
12725;SDS011;6427;49.754;6.106;2023-02-11T09:30:29;49.00;;;25.47;;
12725;SDS011;6427;49.754;6.106;2023-02-11T09:32:57;49.70;;;24.40;;
12725;SDS011;6427;49.754;6.106;2023-02-11T09:35:24;63.13;;;28.47;;
12725;SDS011;6427;49.754;6.106;2023-02-11T09:37:52;58.67;;;32.65;;
12725;SDS011;6427;49.754;6.106;2023-02-11T09:40:19;49.47;;;26.93;;
12725;SDS011;6427;49.754;6.106;2023-02-11T09:42:52;47.47;;;25.73;;
12725;SDS011;6427;49.754;6.106;2023-02-11T09:45:21;50.53;;;25.80;;
12725;SDS011;6427;49.754;6.106;2023-02-11T09:47:49;51.07;;;25.07;;
12725;SDS011;6427;49.754;6.106;2023-02-11T09:50:18;48.17;;;24.70;;
12725;SDS011;6427;49.754;6.106;2023-02-11T09:52:53;45.20;;;23.53;;
12725;SDS011;6427;49.754;6.106;2023-02-11T09:55:44;45.17;;;22.63;;
12725;SDS011;6427;49.754;6.106;2023-02-11T09:58:12;48.40;;;23.70;;
12725;SDS011;6427;49.754;6.106;2023-02-11T10:09:00;51.33;;;26.80;;
12725;SDS011;6427;49.754;6.106;2023-02-11T10:22:21;44.70;;;23.27;;
12725;SDS011;6427;49.754;6.106;2023-02-11T10:24:53;41.67;;;22.90;;
12725;SDS011;6427;49.754;6.106;2023-02-11T10:27:23;42.77;;;21.47;;
12725;SDS011;6427;49.754;6.106;2023-02-11T10:29:50;47.40;;;23.20;;
12725;SDS011;6427;49.754;6.106;2023-02-11T10:32:37;44.30;;;23.23;;
12725;SDS011;6427;49.754;6.106;2023-02-11T10:35:02;41.60;;;22.47;;
12725;SDS011;6427;49.754;6.106;2023-02-11T10:37:29;44.57;;;23.87;;
12725;SDS011;6427;49.754;6.106;2023-02-11T10:39:57;40.83;;;21.50;;
12725;SDS011;6427;49.754;6.106;2023-02-11T10:42:24;39.87;;;21.13;;
12725;SDS011;6427;49.754;6.106;2023-02-11T10:44:59;35.97;;;20.30;;
12725;SDS011;6427;49.754;6.106;2023-02-11T10:47:29;39.83;;;20.17;;
12725;SDS011;6427;49.754;6.106;2023-02-11T10:49:56;34.90;;;19.63;;
12725;SDS011;6427;49.754;6.106;2023-02-11T10:52:24;38.63;;;19.10;;
12725;SDS011;6427;49.754;6.106;2023-02-11T10:57:37;37.13;;;18.70;;
12725;SDS011;6427;49.754;6.106;2023-02-11T11:00:27;38.83;;;23.38;;
12725;SDS011;6427;49.754;6.106;2023-02-11T11:02:42;36.77;;;19.90;;
12725;SDS011;6427;49.754;6.106;2023-02-11T11:05:17;31.60;;;17.93;;
12725;SDS011;6427;49.754;6.106;2023-02-11T11:07:53;30.50;;;17.37;;
12725;SDS011;6427;49.754;6.106;2023-02-11T11:10:28;30.73;;;16.43;;
12725;SDS011;6427;49.754;6.106;2023-02-11T11:12:54;30.40;;;16.67;;
12725;SDS011;6427;49.754;6.106;2023-02-11T11:15:23;31.57;;;17.40;;
12725;SDS011;6427;49.754;6.106;2023-02-11T11:17:50;28.97;;;16.20;;
12725;SDS011;6427;49.754;6.106;2023-02-11T11:20:21;29.90;;;18.60;;
12725;SDS011;6427;49.754;6.106;2023-02-11T11:22:51;26.85;;;17.62;;
12725;SDS011;6427;49.754;6.106;2023-02-11T11:25:27;25.60;;;14.80;;
12725;SDS011;6427;49.754;6.106;2023-02-11T11:27:56;24.53;;;14.17;;
12725;SDS011;6427;49.754;6.106;2023-02-11T11:30:22;24.40;;;13.50;;
12725;SDS011;6427;49.754;6.106;2023-02-11T11:32:50;23.47;;;13.73;;
12725;SDS011;6427;49.754;6.106;2023-02-11T11:35:23;23.50;;;13.47;;
12725;SDS011;6427;49.754;6.106;2023-02-11T11:37:56;25.97;;;15.00;;
12725;SDS011;6427;49.754;6.106;2023-02-11T11:40:29;25.63;;;15.53;;
12725;SDS011;6427;49.754;6.106;2023-02-11T11:43:36;24.47;;;13.70;;
12725;SDS011;6427;49.754;6.106;2023-02-11T11:45:29;25.67;;;15.27;;
12725;SDS011;6427;49.754;6.106;2023-02-11T11:48:11;25.30;;;16.40;;
12725;SDS011;6427;49.754;6.106;2023-02-11T11:50:43;23.87;;;13.80;;
12725;SDS011;6427;49.754;6.106;2023-02-11T11:53:14;29.17;;;16.00;;
12725;SDS011;6427;49.754;6.106;2023-02-11T11:55:40;20.57;;;13.20;;
12725;SDS011;6427;49.754;6.106;2023-02-11T11:58:19;21.43;;;13.23;;
12725;SDS011;6427;49.754;6.106;2023-02-11T12:00:51;23.77;;;14.13;;
12725;SDS011;6427;49.754;6.106;2023-02-11T12:09:11;19.93;;;10.93;;
12725;SDS011;6427;49.754;6.106;2023-02-11T12:11:51;20.50;;;11.87;;
12725;SDS011;6427;49.754;6.106;2023-02-11T12:39:10;25.20;;;13.53;;
12725;SDS011;6427;49.754;6.106;2023-02-11T12:41:47;22.50;;;12.67;;
12725;SDS011;6427;49.754;6.106;2023-02-11T12:44:33;21.95;;;14.80;;
12725;SDS011;6427;49.754;6.106;2023-02-11T12:47:16;23.07;;;13.43;;
12725;SDS011;6427;49.754;6.106;2023-02-11T12:49:39;21.77;;;12.10;;
12725;SDS011;6427;49.754;6.106;2023-02-11T12:54:57;24.13;;;12.10;;
12725;SDS011;6427;49.754;6.106;2023-02-11T12:57:24;23.17;;;12.60;;
12725;SDS011;6427;49.754;6.106;2023-02-11T13:05:32;18.47;;;11.17;;
12725;SDS011;6427;49.754;6.106;2023-02-11T13:08:45;19.33;;;11.57;;
12725;SDS011;6427;49.754;6.106;2023-02-11T13:10:36;18.07;;;10.57;;
12725;SDS011;6427;49.754;6.106;2023-02-11T13:13:04;19.13;;;11.87;;
12725;SDS011;6427;49.754;6.106;2023-02-11T13:15:49;18.50;;;10.60;;
12725;SDS011;6427;49.754;6.106;2023-02-11T13:23:36;21.30;;;12.03;;
12725;SDS011;6427;49.754;6.106;2023-02-11T13:26:31;19.40;;;11.87;;
12725;SDS011;6427;49.754;6.106;2023-02-11T13:31:36;17.83;;;10.80;;
12725;SDS011;6427;49.754;6.106;2023-02-11T13:34:19;18.70;;;10.70;;
12725;SDS011;6427;49.754;6.106;2023-02-11T13:36:32;17.07;;;9.93;;
12725;SDS011;6427;49.754;6.106;2023-02-11T13:39:03;19.00;;;11.17;;
12725;SDS011;6427;49.754;6.106;2023-02-11T13:41:34;17.40;;;10.03;;
12725;SDS011;6427;49.754;6.106;2023-02-11T13:46:47;16.33;;;9.33;;
12725;SDS011;6427;49.754;6.106;2023-02-11T13:49:20;17.93;;;9.90;;
12725;SDS011;6427;49.754;6.106;2023-02-11T13:51:47;19.23;;;11.40;;
12725;SDS011;6427;49.754;6.106;2023-02-11T13:54:18;18.03;;;9.90;;
12725;SDS011;6427;49.754;6.106;2023-02-11T13:56:45;15.87;;;9.87;;
12725;SDS011;6427;49.754;6.106;2023-02-11T13:59:43;16.57;;;9.87;;
12725;SDS011;6427;49.754;6.106;2023-02-11T14:10:53;17.67;;;9.83;;
12725;SDS011;6427;49.754;6.106;2023-02-11T14:13:24;17.33;;;9.97;;
12725;SDS011;6427;49.754;6.106;2023-02-11T14:16:12;19.90;;;9.97;;
12725;SDS011;6427;49.754;6.106;2023-02-11T14:23:43;17.50;;;10.30;;
12725;SDS011;6427;49.754;6.106;2023-02-11T14:28:38;18.50;;;10.33;;
12725;SDS011;6427;49.754;6.106;2023-02-11T14:33:46;28.33;;;16.00;;
12725;SDS011;6427;49.754;6.106;2023-02-11T14:36:17;40.50;;;21.97;;
12725;SDS011;6427;49.754;6.106;2023-02-11T14:39:05;23.07;;;14.37;;
12725;SDS011;6427;49.754;6.106;2023-02-11T14:41:42;24.30;;;13.87;;
12725;SDS011;6427;49.754;6.106;2023-02-11T14:44:29;25.77;;;14.43;;
12725;SDS011;6427;49.754;6.106;2023-02-11T14:46:42;21.83;;;11.90;;
12725;SDS011;6427;49.754;6.106;2023-02-11T14:49:06;18.77;;;10.63;;
12725;SDS011;6427;49.754;6.106;2023-02-11T14:51:34;23.03;;;12.57;;
12725;SDS011;6427;49.754;6.106;2023-02-11T14:54:18;20.23;;;11.43;;
12725;SDS011;6427;49.754;6.106;2023-02-11T14:56:45;19.30;;;11.97;;
12725;SDS011;6427;49.754;6.106;2023-02-11T14:59:16;21.70;;;11.90;;
12725;SDS011;6427;49.754;6.106;2023-02-11T15:01:44;25.30;;;13.30;;
12725;SDS011;6427;49.754;6.106;2023-02-11T15:04:27;20.57;;;12.50;;
12725;SDS011;6427;49.754;6.106;2023-02-11T15:06:53;22.23;;;13.73;;
12725;SDS011;6427;49.754;6.106;2023-02-11T15:09:22;23.43;;;13.13;;
12725;SDS011;6427;49.754;6.106;2023-02-11T15:11:50;18.13;;;9.87;;
12725;SDS011;6427;49.754;6.106;2023-02-11T15:14:20;18.97;;;10.27;;
12725;SDS011;6427;49.754;6.106;2023-02-11T15:16:46;16.63;;;9.97;;
12725;SDS011;6427;49.754;6.106;2023-02-11T15:19:18;17.63;;;10.73;;
12725;SDS011;6427;49.754;6.106;2023-02-11T15:21:45;18.47;;;10.07;;
12725;SDS011;6427;49.754;6.106;2023-02-11T15:24:23;18.93;;;10.50;;
12725;SDS011;6427;49.754;6.106;2023-02-11T15:26:58;19.83;;;12.90;;
12725;SDS011;6427;49.754;6.106;2023-02-11T15:29:38;16.57;;;10.20;;
12725;SDS011;6427;49.754;6.106;2023-02-11T15:32:05;17.17;;;10.57;;
12725;SDS011;6427;49.754;6.106;2023-02-11T15:34:35;17.43;;;10.30;;
12725;SDS011;6427;49.754;6.106;2023-02-11T15:37:03;17.17;;;9.57;;
12725;SDS011;6427;49.754;6.106;2023-02-11T15:39:37;16.70;;;8.83;;
12725;SDS011;6427;49.754;6.106;2023-02-11T15:42:17;15.70;;;9.30;;
12725;SDS011;6427;49.754;6.106;2023-02-11T15:44:44;16.70;;;9.47;;
12725;SDS011;6427;49.754;6.106;2023-02-11T15:47:12;17.30;;;11.57;;
12725;SDS011;6427;49.754;6.106;2023-02-11T15:49:42;20.00;;;10.33;;
12725;SDS011;6427;49.754;6.106;2023-02-11T15:52:08;15.97;;;9.60;;
12725;SDS011;6427;49.754;6.106;2023-02-11T15:54:35;15.13;;;9.50;;
12725;SDS011;6427;49.754;6.106;2023-02-11T15:57:03;20.90;;;12.03;;
12725;SDS011;6427;49.754;6.106;2023-02-11T15:59:32;30.33;;;15.57;;
12725;SDS011;6427;49.754;6.106;2023-02-11T16:02:05;17.63;;;10.07;;
12725;SDS011;6427;49.754;6.106;2023-02-11T16:04:34;16.00;;;8.57;;
12725;SDS011;6427;49.754;6.106;2023-02-11T16:07:01;15.20;;;9.00;;
12725;SDS011;6427;49.754;6.106;2023-02-11T16:09:33;14.80;;;9.00;;
12725;SDS011;6427;49.754;6.106;2023-02-11T16:11:57;12.70;;;8.27;;
12725;SDS011;6427;49.754;6.106;2023-02-11T16:14:29;16.33;;;9.43;;
12725;SDS011;6427;49.754;6.106;2023-02-11T16:16:58;17.40;;;9.33;;
12725;SDS011;6427;49.754;6.106;2023-02-11T16:19:29;16.67;;;9.60;;
12725;SDS011;6427;49.754;6.106;2023-02-11T16:21:58;17.80;;;9.17;;
12725;SDS011;6427;49.754;6.106;2023-02-11T16:26:53;18.10;;;9.77;;
12725;SDS011;6427;49.754;6.106;2023-02-11T16:29:24;18.37;;;10.30;;
12725;SDS011;6427;49.754;6.106;2023-02-11T16:31:51;15.47;;;9.90;;
12725;SDS011;6427;49.754;6.106;2023-02-11T16:34:22;18.65;;;12.40;;
12725;SDS011;6427;49.754;6.106;2023-02-11T16:36:49;19.57;;;10.87;;
12725;SDS011;6427;49.754;6.106;2023-02-11T16:39:18;20.05;;;12.82;;
12725;SDS011;6427;49.754;6.106;2023-02-11T16:41:45;16.30;;;9.77;;
12725;SDS011;6427;49.754;6.106;2023-02-11T16:44:13;17.10;;;9.63;;
12725;SDS011;6427;49.754;6.106;2023-02-11T16:46:41;18.00;;;10.53;;
12725;SDS011;6427;49.754;6.106;2023-02-11T16:49:16;18.77;;;11.10;;
12725;SDS011;6427;49.754;6.106;2023-02-11T16:51:42;21.33;;;11.40;;